sensor_id;sensor_type;location;lat;lon;timestamp;P1;durP1;ratioP1;P2;durP2;ratioP2
23728;SDS011;12045;60.214;24.724;2023-02-19T00:02:24;17.23;;;8.23;;
23728;SDS011;12045;60.214;24.724;2023-02-19T00:04:51;19.63;;;9.03;;
23728;SDS011;12045;60.214;24.724;2023-02-19T00:07:19;19.33;;;8.20;;
23728;SDS011;12045;60.214;24.724;2023-02-19T00:09:47;17.63;;;8.37;;
23728;SDS011;12045;60.214;24.724;2023-02-19T00:12:14;18.20;;;8.17;;
23728;SDS011;12045;60.214;24.724;2023-02-19T00:14:41;19.97;;;9.37;;
23728;SDS011;12045;60.214;24.724;2023-02-19T00:17:09;21.37;;;9.33;;
23728;SDS011;12045;60.214;24.724;2023-02-19T00:19:36;23.80;;;9.23;;
23728;SDS011;12045;60.214;24.724;2023-02-19T00:22:04;19.40;;;9.40;;
23728;SDS011;12045;60.214;24.724;2023-02-19T00:24:31;20.27;;;8.80;;
23728;SDS011;12045;60.214;24.724;2023-02-19T00:26:59;14.50;;;6.77;;
23728;SDS011;12045;60.214;24.724;2023-02-19T00:29:26;15.50;;;7.07;;
23728;SDS011;12045;60.214;24.724;2023-02-19T00:31:54;10.63;;;5.53;;
23728;SDS011;12045;60.214;24.724;2023-02-19T00:34:22;15.03;;;6.70;;
23728;SDS011;12045;60.214;24.724;2023-02-19T00:36:49;8.37;;;4.90;;
23728;SDS011;12045;60.214;24.724;2023-02-19T00:39:16;9.53;;;5.50;;
23728;SDS011;12045;60.214;24.724;2023-02-19T00:41:44;8.83;;;4.90;;
23728;SDS011;12045;60.214;24.724;2023-02-19T00:44:12;10.67;;;4.80;;
23728;SDS011;12045;60.214;24.724;2023-02-19T00:46:41;8.53;;;4.80;;
23728;SDS011;12045;60.214;24.724;2023-02-19T00:49:12;9.03;;;4.90;;
23728;SDS011;12045;60.214;24.724;2023-02-19T00:51:42;6.90;;;4.27;;
23728;SDS011;12045;60.214;24.724;2023-02-19T00:54:11;6.73;;;3.93;;
23728;SDS011;12045;60.214;24.724;2023-02-19T00:56:39;6.60;;;3.87;;
23728;SDS011;12045;60.214;24.724;2023-02-19T00:59:07;8.33;;;4.90;;
23728;SDS011;12045;60.214;24.724;2023-02-19T01:01:35;8.00;;;4.87;;
23728;SDS011;12045;60.214;24.724;2023-02-19T01:04:03;8.50;;;4.83;;
23728;SDS011;12045;60.214;24.724;2023-02-19T01:06:32;7.03;;;4.20;;
23728;SDS011;12045;60.214;24.724;2023-02-19T01:09:01;7.77;;;4.50;;
23728;SDS011;12045;60.214;24.724;2023-02-19T01:11:30;6.47;;;4.30;;
23728;SDS011;12045;60.214;24.724;2023-02-19T01:13:58;8.87;;;4.70;;
23728;SDS011;12045;60.214;24.724;2023-02-19T01:16:26;7.30;;;4.03;;
23728;SDS011;12045;60.214;24.724;2023-02-19T01:18:54;9.27;;;4.90;;
23728;SDS011;12045;60.214;24.724;2023-02-19T01:21:23;7.03;;;4.27;;
23728;SDS011;12045;60.214;24.724;2023-02-19T01:23:52;7.43;;;4.20;;
23728;SDS011;12045;60.214;24.724;2023-02-19T01:26:26;6.97;;;4.40;;
23728;SDS011;12045;60.214;24.724;2023-02-19T01:28:55;6.67;;;4.03;;
23728;SDS011;12045;60.214;24.724;2023-02-19T01:31:23;6.73;;;4.27;;
23728;SDS011;12045;60.214;24.724;2023-02-19T01:33:53;6.83;;;4.43;;
23728;SDS011;12045;60.214;24.724;2023-02-19T01:36:25;7.37;;;4.67;;
23728;SDS011;12045;60.214;24.724;2023-02-19T01:38:53;6.00;;;3.97;;
23728;SDS011;12045;60.214;24.724;2023-02-19T01:41:22;7.93;;;4.73;;
23728;SDS011;12045;60.214;24.724;2023-02-19T01:43:55;7.20;;;4.10;;
23728;SDS011;12045;60.214;24.724;2023-02-19T01:46:26;7.83;;;4.43;;
23728;SDS011;12045;60.214;24.724;2023-02-19T01:48:56;7.63;;;4.50;;
23728;SDS011;12045;60.214;24.724;2023-02-19T01:51:26;7.37;;;4.03;;
23728;SDS011;12045;60.214;24.724;2023-02-19T01:53:57;5.57;;;3.30;;
23728;SDS011;12045;60.214;24.724;2023-02-19T01:56:27;7.53;;;4.40;;
23728;SDS011;12045;60.214;24.724;2023-02-19T01:58:57;7.93;;;3.80;;
23728;SDS011;12045;60.214;24.724;2023-02-19T02:01:26;5.80;;;3.93;;
23728;SDS011;12045;60.214;24.724;2023-02-19T02:03:53;5.57;;;3.77;;
23728;SDS011;12045;60.214;24.724;2023-02-19T02:06:22;6.00;;;3.97;;
23728;SDS011;12045;60.214;24.724;2023-02-19T02:08:53;5.97;;;3.83;;
23728;SDS011;12045;60.214;24.724;2023-02-19T02:11:42;7.50;;;3.90;;
23728;SDS011;12045;60.214;24.724;2023-02-19T02:14:13;7.13;;;4.23;;
23728;SDS011;12045;60.214;24.724;2023-02-19T02:20:26;7.87;;;4.40;;
23728;SDS011;12045;60.214;24.724;2023-02-19T02:22:49;7.27;;;4.03;;
23728;SDS011;12045;60.214;24.724;2023-02-19T02:25:39;6.37;;;3.73;;
23728;SDS011;12045;60.214;24.724;2023-02-19T02:31:22;6.57;;;3.80;;
23728;SDS011;12045;60.214;24.724;2023-02-19T02:34:07;6.17;;;3.93;;
23728;SDS011;12045;60.214;24.724;2023-02-19T02:36:46;5.67;;;3.80;;
23728;SDS011;12045;60.214;24.724;2023-02-19T02:39:19;7.33;;;4.03;;
23728;SDS011;12045;60.214;24.724;2023-02-19T02:41:50;6.50;;;3.97;;
23728;SDS011;12045;60.214;24.724;2023-02-19T02:44:42;6.87;;;3.97;;
23728;SDS011;12045;60.214;24.724;2023-02-19T02:47:30;7.13;;;3.50;;
23728;SDS011;12045;60.214;24.724;2023-02-19T02:50:10;6.13;;;3.50;;
23728;SDS011;12045;60.214;24.724;2023-02-19T02:52:51;6.27;;;4.17;;
23728;SDS011;12045;60.214;24.724;2023-02-19T02:55:48;6.10;;;3.40;;
23728;SDS011;12045;60.214;24.724;2023-02-19T02:58:18;6.03;;;3.70;;
23728;SDS011;12045;60.214;24.724;2023-02-19T03:00:50;6.57;;;4.00;;
23728;SDS011;12045;60.214;24.724;2023-02-19T03:03:43;7.63;;;3.83;;
23728;SDS011;12045;60.214;24.724;2023-02-19T03:06:14;5.77;;;3.20;;
23728;SDS011;12045;60.214;24.724;2023-02-19T03:11:39;5.80;;;3.27;;
23728;SDS011;12045;60.214;24.724;2023-02-19T03:14:30;5.43;;;3.50;;
23728;SDS011;12045;60.214;24.724;2023-02-19T03:17:32;7.67;;;4.00;;
23728;SDS011;12045;60.214;24.724;2023-02-19T03:20:24;6.03;;;3.33;;
23728;SDS011;12045;60.214;24.724;2023-02-19T03:22:53;6.37;;;3.50;;
23728;SDS011;12045;60.214;24.724;2023-02-19T03:25:24;6.40;;;3.40;;
23728;SDS011;12045;60.214;24.724;2023-02-19T03:28:13;5.40;;;3.60;;
23728;SDS011;12045;60.214;24.724;2023-02-19T03:30:47;6.03;;;3.60;;
23728;SDS011;12045;60.214;24.724;2023-02-19T03:33:19;5.30;;;3.63;;
23728;SDS011;12045;60.214;24.724;2023-02-19T03:36:00;5.83;;;3.87;;
23728;SDS011;12045;60.214;24.724;2023-02-19T03:38:35;5.70;;;3.70;;
23728;SDS011;12045;60.214;24.724;2023-02-19T03:44:22;6.10;;;3.90;;
23728;SDS011;12045;60.214;24.724;2023-02-19T03:55:50;5.50;;;3.67;;
23728;SDS011;12045;60.214;24.724;2023-02-19T03:58:37;5.20;;;3.57;;
23728;SDS011;12045;60.214;24.724;2023-02-19T04:01:08;4.87;;;3.33;;
23728;SDS011;12045;60.214;24.724;2023-02-19T04:03:46;5.47;;;3.93;;
23728;SDS011;12045;60.214;24.724;2023-02-19T04:06:20;6.00;;;3.80;;
23728;SDS011;12045;60.214;24.724;2023-02-19T04:08:52;5.47;;;3.50;;
23728;SDS011;12045;60.214;24.724;2023-02-19T04:11:24;6.10;;;4.10;;
23728;SDS011;12045;60.214;24.724;2023-02-19T04:13:55;5.93;;;3.67;;
23728;SDS011;12045;60.214;24.724;2023-02-19T04:16:29;7.37;;;4.03;;
23728;SDS011;12045;60.214;24.724;2023-02-19T04:19:01;5.83;;;3.90;;
23728;SDS011;12045;60.214;24.724;2023-02-19T04:21:33;6.90;;;3.97;;
23728;SDS011;12045;60.214;24.724;2023-02-19T04:24:05;8.17;;;3.73;;
23728;SDS011;12045;60.214;24.724;2023-02-19T04:26:37;6.23;;;3.80;;
23728;SDS011;12045;60.214;24.724;2023-02-19T04:29:07;6.37;;;3.67;;
23728;SDS011;12045;60.214;24.724;2023-02-19T04:31:35;6.13;;;3.70;;
23728;SDS011;12045;60.214;24.724;2023-02-19T04:34:04;7.80;;;4.00;;
23728;SDS011;12045;60.214;24.724;2023-02-19T04:36:32;5.80;;;3.87;;
23728;SDS011;12045;60.214;24.724;2023-02-19T04:38:59;7.33;;;3.93;;
23728;SDS011;12045;60.214;24.724;2023-02-19T04:41:27;6.07;;;3.77;;
23728;SDS011;12045;60.214;24.724;2023-02-19T04:43:54;5.87;;;3.70;;
23728;SDS011;12045;60.214;24.724;2023-02-19T04:46:22;5.80;;;3.70;;
23728;SDS011;12045;60.214;24.724;2023-02-19T04:48:49;5.30;;;3.50;;
23728;SDS011;12045;60.214;24.724;2023-02-19T04:51:17;6.70;;;3.87;;
23728;SDS011;12045;60.214;24.724;2023-02-19T04:53:44;6.33;;;3.70;;
23728;SDS011;12045;60.214;24.724;2023-02-19T04:56:12;7.27;;;3.83;;
23728;SDS011;12045;60.214;24.724;2023-02-19T04:58:42;5.97;;;3.73;;
23728;SDS011;12045;60.214;24.724;2023-02-19T05:01:10;5.27;;;3.50;;
23728;SDS011;12045;60.214;24.724;2023-02-19T05:03:38;5.00;;;3.33;;
23728;SDS011;12045;60.214;24.724;2023-02-19T05:06:07;6.50;;;3.77;;
23728;SDS011;12045;60.214;24.724;2023-02-19T05:08:36;5.20;;;3.20;;
23728;SDS011;12045;60.214;24.724;2023-02-19T05:11:04;5.77;;;3.60;;
23728;SDS011;12045;60.214;24.724;2023-02-19T05:13:33;5.33;;;3.40;;
23728;SDS011;12045;60.214;24.724;2023-02-19T05:16:08;7.23;;;4.00;;
23728;SDS011;12045;60.214;24.724;2023-02-19T05:18:42;4.53;;;3.13;;
23728;SDS011;12045;60.214;24.724;2023-02-19T05:21:11;5.80;;;3.37;;
23728;SDS011;12045;60.214;24.724;2023-02-19T05:23:39;5.57;;;3.40;;
23728;SDS011;12045;60.214;24.724;2023-02-19T05:26:08;5.80;;;3.70;;
23728;SDS011;12045;60.214;24.724;2023-02-19T05:28:39;5.77;;;3.37;;
23728;SDS011;12045;60.214;24.724;2023-02-19T05:31:07;7.10;;;3.97;;
23728;SDS011;12045;60.214;24.724;2023-02-19T05:33:35;5.87;;;3.60;;
23728;SDS011;12045;60.214;24.724;2023-02-19T05:36:05;6.50;;;3.67;;
23728;SDS011;12045;60.214;24.724;2023-02-19T05:38:34;5.77;;;4.00;;
23728;SDS011;12045;60.214;24.724;2023-02-19T05:41:06;6.70;;;4.00;;
23728;SDS011;12045;60.214;24.724;2023-02-19T05:43:39;3.83;;;3.00;;
23728;SDS011;12045;60.214;24.724;2023-02-19T05:46:11;5.60;;;3.83;;
23728;SDS011;12045;60.214;24.724;2023-02-19T05:48:40;5.10;;;3.33;;
23728;SDS011;12045;60.214;24.724;2023-02-19T05:51:09;5.60;;;4.00;;
23728;SDS011;12045;60.214;24.724;2023-02-19T05:53:39;5.77;;;3.43;;
23728;SDS011;12045;60.214;24.724;2023-02-19T05:58:43;5.20;;;3.40;;
23728;SDS011;12045;60.214;24.724;2023-02-19T06:01:17;6.23;;;3.47;;
23728;SDS011;12045;60.214;24.724;2023-02-19T06:03:47;5.83;;;3.43;;
23728;SDS011;12045;60.214;24.724;2023-02-19T06:06:15;7.17;;;3.97;;
23728;SDS011;12045;60.214;24.724;2023-02-19T06:08:44;5.30;;;3.53;;
23728;SDS011;12045;60.214;24.724;2023-02-19T06:11:13;6.20;;;4.00;;
23728;SDS011;12045;60.214;24.724;2023-02-19T06:13:41;5.80;;;3.60;;
23728;SDS011;12045;60.214;24.724;2023-02-19T06:16:08;7.07;;;4.03;;
23728;SDS011;12045;60.214;24.724;2023-02-19T06:18:36;6.77;;;3.90;;
23728;SDS011;12045;60.214;24.724;2023-02-19T06:21:07;5.67;;;3.53;;
23728;SDS011;12045;60.214;24.724;2023-02-19T06:23:37;4.70;;;3.40;;
23728;SDS011;12045;60.214;24.724;2023-02-19T06:28:47;5.93;;;3.73;;
23728;SDS011;12045;60.214;24.724;2023-02-19T06:31:16;5.93;;;3.73;;
23728;SDS011;12045;60.214;24.724;2023-02-19T06:33:45;6.50;;;3.60;;
23728;SDS011;12045;60.214;24.724;2023-02-19T06:36:14;5.77;;;3.50;;
23728;SDS011;12045;60.214;24.724;2023-02-19T06:38:43;5.93;;;3.90;;
23728;SDS011;12045;60.214;24.724;2023-02-19T06:41:11;4.93;;;3.57;;
23728;SDS011;12045;60.214;24.724;2023-02-19T06:43:40;6.10;;;3.27;;
23728;SDS011;12045;60.214;24.724;2023-02-19T06:46:09;5.50;;;3.40;;
23728;SDS011;12045;60.214;24.724;2023-02-19T06:48:38;6.00;;;3.40;;
23728;SDS011;12045;60.214;24.724;2023-02-19T06:51:08;6.37;;;3.20;;
23728;SDS011;12045;60.214;24.724;2023-02-19T06:53:38;5.00;;;3.60;;
23728;SDS011;12045;60.214;24.724;2023-02-19T06:56:18;5.97;;;3.73;;
23728;SDS011;12045;60.214;24.724;2023-02-19T06:58:51;5.17;;;3.47;;
23728;SDS011;12045;60.214;24.724;2023-02-19T07:01:23;6.77;;;3.27;;
23728;SDS011;12045;60.214;24.724;2023-02-19T07:03:51;5.47;;;3.33;;
23728;SDS011;12045;60.214;24.724;2023-02-19T07:06:20;5.63;;;3.47;;
23728;SDS011;12045;60.214;24.724;2023-02-19T07:08:48;5.17;;;3.53;;
23728;SDS011;12045;60.214;24.724;2023-02-19T07:11:16;5.33;;;3.37;;
23728;SDS011;12045;60.214;24.724;2023-02-19T07:13:44;6.43;;;3.73;;
23728;SDS011;12045;60.214;24.724;2023-02-19T07:16:12;6.37;;;3.70;;
23728;SDS011;12045;60.214;24.724;2023-02-19T07:18:40;5.67;;;3.83;;
23728;SDS011;12045;60.214;24.724;2023-02-19T07:21:09;5.87;;;3.70;;
23728;SDS011;12045;60.214;24.724;2023-02-19T07:23:38;5.40;;;3.60;;
23728;SDS011;12045;60.214;24.724;2023-02-19T07:26:10;6.10;;;3.90;;
23728;SDS011;12045;60.214;24.724;2023-02-19T07:28:41;6.37;;;4.00;;
23728;SDS011;12045;60.214;24.724;2023-02-19T07:31:10;6.13;;;3.90;;
23728;SDS011;12045;60.214;24.724;2023-02-19T07:33:41;6.73;;;4.00;;
23728;SDS011;12045;60.214;24.724;2023-02-19T07:36:12;7.40;;;4.17;;
23728;SDS011;12045;60.214;24.724;2023-02-19T07:38:43;8.27;;;4.67;;
23728;SDS011;12045;60.214;24.724;2023-02-19T07:41:10;7.87;;;4.47;;
23728;SDS011;12045;60.214;24.724;2023-02-19T07:43:39;5.60;;;4.10;;
23728;SDS011;12045;60.214;24.724;2023-02-19T07:46:07;5.37;;;4.00;;
23728;SDS011;12045;60.214;24.724;2023-02-19T07:48:36;7.80;;;4.30;;
23728;SDS011;12045;60.214;24.724;2023-02-19T07:51:05;6.50;;;4.03;;
23728;SDS011;12045;60.214;24.724;2023-02-19T07:53:34;5.73;;;3.83;;
23728;SDS011;12045;60.214;24.724;2023-02-19T07:56:03;7.87;;;4.63;;
23728;SDS011;12045;60.214;24.724;2023-02-19T07:58:32;7.60;;;4.50;;
23728;SDS011;12045;60.214;24.724;2023-02-19T08:01:08;9.03;;;4.40;;
23728;SDS011;12045;60.214;24.724;2023-02-19T08:03:37;8.43;;;4.80;;
23728;SDS011;12045;60.214;24.724;2023-02-19T08:06:05;7.90;;;4.03;;
23728;SDS011;12045;60.214;24.724;2023-02-19T08:08:34;9.00;;;4.63;;
23728;SDS011;12045;60.214;24.724;2023-02-19T08:11:02;6.87;;;4.70;;
23728;SDS011;12045;60.214;24.724;2023-02-19T08:13:50;6.23;;;4.17;;
23728;SDS011;12045;60.214;24.724;2023-02-19T08:16:18;6.77;;;4.37;;
23728;SDS011;12045;60.214;24.724;2023-02-19T08:19:02;7.60;;;4.63;;
23728;SDS011;12045;60.214;24.724;2023-02-19T08:21:30;8.73;;;4.83;;
23728;SDS011;12045;60.214;24.724;2023-02-19T08:24:00;8.50;;;4.50;;
23728;SDS011;12045;60.214;24.724;2023-02-19T08:26:27;7.47;;;4.23;;
23728;SDS011;12045;60.214;24.724;2023-02-19T08:28:54;6.43;;;4.10;;
23728;SDS011;12045;60.214;24.724;2023-02-19T08:31:22;6.83;;;4.17;;
23728;SDS011;12045;60.214;24.724;2023-02-19T08:33:49;8.53;;;4.83;;
23728;SDS011;12045;60.214;24.724;2023-02-19T08:36:17;7.60;;;4.87;;
23728;SDS011;12045;60.214;24.724;2023-02-19T08:38:44;9.10;;;5.10;;
23728;SDS011;12045;60.214;24.724;2023-02-19T08:41:12;7.83;;;4.73;;
23728;SDS011;12045;60.214;24.724;2023-02-19T08:43:41;7.03;;;4.43;;
23728;SDS011;12045;60.214;24.724;2023-02-19T08:46:09;8.07;;;5.03;;
23728;SDS011;12045;60.214;24.724;2023-02-19T08:48:38;6.80;;;4.43;;
23728;SDS011;12045;60.214;24.724;2023-02-19T08:51:07;5.83;;;3.83;;
23728;SDS011;12045;60.214;24.724;2023-02-19T08:53:36;8.17;;;4.80;;
23728;SDS011;12045;60.214;24.724;2023-02-19T08:56:05;5.93;;;4.17;;
23728;SDS011;12045;60.214;24.724;2023-02-19T08:58:33;9.33;;;4.90;;
23728;SDS011;12045;60.214;24.724;2023-02-19T09:01:02;10.17;;;4.87;;
23728;SDS011;12045;60.214;24.724;2023-02-19T09:03:33;8.70;;;4.67;;
23728;SDS011;12045;60.214;24.724;2023-02-19T09:06:02;11.67;;;4.90;;
23728;SDS011;12045;60.214;24.724;2023-02-19T09:08:29;7.97;;;4.77;;
23728;SDS011;12045;60.214;24.724;2023-02-19T09:10:58;7.73;;;4.83;;
23728;SDS011;12045;60.214;24.724;2023-02-19T09:13:26;7.17;;;4.37;;
23728;SDS011;12045;60.214;24.724;2023-02-19T09:15:54;6.63;;;4.30;;
23728;SDS011;12045;60.214;24.724;2023-02-19T09:18:23;8.93;;;4.77;;
23728;SDS011;12045;60.214;24.724;2023-02-19T09:20:51;11.13;;;5.50;;
23728;SDS011;12045;60.214;24.724;2023-02-19T09:23:19;8.70;;;4.93;;
23728;SDS011;12045;60.214;24.724;2023-02-19T09:25:47;7.43;;;5.10;;
23728;SDS011;12045;60.214;24.724;2023-02-19T09:28:14;7.27;;;4.70;;
23728;SDS011;12045;60.214;24.724;2023-02-19T09:30:42;8.43;;;5.17;;
23728;SDS011;12045;60.214;24.724;2023-02-19T09:33:10;8.67;;;5.30;;
23728;SDS011;12045;60.214;24.724;2023-02-19T09:35:38;9.00;;;5.13;;
23728;SDS011;12045;60.214;24.724;2023-02-19T09:38:06;8.53;;;5.07;;
23728;SDS011;12045;60.214;24.724;2023-02-19T09:40:36;9.60;;;5.10;;
23728;SDS011;12045;60.214;24.724;2023-02-19T09:43:05;7.97;;;5.10;;
23728;SDS011;12045;60.214;24.724;2023-02-19T09:45:35;8.53;;;5.23;;
23728;SDS011;12045;60.214;24.724;2023-02-19T09:48:03;11.33;;;5.63;;
23728;SDS011;12045;60.214;24.724;2023-02-19T09:50:36;7.47;;;4.83;;
23728;SDS011;12045;60.214;24.724;2023-02-19T09:53:11;9.67;;;5.03;;
23728;SDS011;12045;60.214;24.724;2023-02-19T09:55:48;8.87;;;5.63;;
23728;SDS011;12045;60.214;24.724;2023-02-19T09:58:23;9.47;;;5.57;;
23728;SDS011;12045;60.214;24.724;2023-02-19T10:00:59;8.63;;;5.33;;
23728;SDS011;12045;60.214;24.724;2023-02-19T10:03:29;9.60;;;5.70;;
23728;SDS011;12045;60.214;24.724;2023-02-19T10:06:01;9.57;;;5.53;;
23728;SDS011;12045;60.214;24.724;2023-02-19T10:08:38;11.00;;;5.90;;
23728;SDS011;12045;60.214;24.724;2023-02-19T10:11:06;11.33;;;6.00;;
23728;SDS011;12045;60.214;24.724;2023-02-19T10:16:21;8.07;;;5.00;;
23728;SDS011;12045;60.214;24.724;2023-02-19T10:18:52;9.67;;;5.40;;
23728;SDS011;12045;60.214;24.724;2023-02-19T10:21:20;10.33;;;6.00;;
23728;SDS011;12045;60.214;24.724;2023-02-19T10:23:51;9.80;;;5.47;;
23728;SDS011;12045;60.214;24.724;2023-02-19T10:26:22;8.93;;;5.33;;
23728;SDS011;12045;60.214;24.724;2023-02-19T10:28:50;10.30;;;5.50;;
23728;SDS011;12045;60.214;24.724;2023-02-19T10:31:18;10.90;;;6.50;;
23728;SDS011;12045;60.214;24.724;2023-02-19T10:33:49;9.93;;;5.73;;
23728;SDS011;12045;60.214;24.724;2023-02-19T10:36:26;9.27;;;5.67;;
23728;SDS011;12045;60.214;24.724;2023-02-19T10:38:57;8.77;;;5.07;;
23728;SDS011;12045;60.214;24.724;2023-02-19T10:41:29;8.97;;;4.93;;
23728;SDS011;12045;60.214;24.724;2023-02-19T10:44:02;12.93;;;6.07;;
23728;SDS011;12045;60.214;24.724;2023-02-19T10:46:36;9.80;;;6.43;;
23728;SDS011;12045;60.214;24.724;2023-02-19T10:49:23;12.03;;;6.00;;
23728;SDS011;12045;60.214;24.724;2023-02-19T10:51:56;11.27;;;6.10;;
23728;SDS011;12045;60.214;24.724;2023-02-19T10:54:50;9.87;;;6.37;;
23728;SDS011;12045;60.214;24.724;2023-02-19T10:59:57;10.33;;;5.93;;
23728;SDS011;12045;60.214;24.724;2023-02-19T11:02:30;9.67;;;6.27;;
23728;SDS011;12045;60.214;24.724;2023-02-19T11:05:02;10.87;;;6.10;;
23728;SDS011;12045;60.214;24.724;2023-02-19T11:07:30;11.20;;;5.67;;
23728;SDS011;12045;60.214;24.724;2023-02-19T11:09:58;12.13;;;6.70;;
23728;SDS011;12045;60.214;24.724;2023-02-19T11:12:28;9.53;;;6.50;;
23728;SDS011;12045;60.214;24.724;2023-02-19T11:15:03;10.87;;;6.57;;
23728;SDS011;12045;60.214;24.724;2023-02-19T11:18:04;10.40;;;6.00;;
23728;SDS011;12045;60.214;24.724;2023-02-19T11:20:55;13.27;;;6.90;;
23728;SDS011;12045;60.214;24.724;2023-02-19T11:23:26;12.53;;;7.23;;
23728;SDS011;12045;60.214;24.724;2023-02-19T11:25:55;15.00;;;7.67;;
23728;SDS011;12045;60.214;24.724;2023-02-19T11:28:40;16.70;;;8.70;;
23728;SDS011;12045;60.214;24.724;2023-02-19T11:31:13;18.10;;;9.57;;
23728;SDS011;12045;60.214;24.724;2023-02-19T11:33:57;15.60;;;9.03;;
23728;SDS011;12045;60.214;24.724;2023-02-19T11:36:27;18.73;;;9.03;;
23728;SDS011;12045;60.214;24.724;2023-02-19T11:50:24;18.47;;;8.83;;
23728;SDS011;12045;60.214;24.724;2023-02-19T11:53:24;16.33;;;9.20;;
23728;SDS011;12045;60.214;24.724;2023-02-19T12:13:09;17.03;;;9.33;;
23728;SDS011;12045;60.214;24.724;2023-02-19T12:21:27;19.47;;;10.40;;
23728;SDS011;12045;60.214;24.724;2023-02-19T12:35:20;19.23;;;9.97;;
23728;SDS011;12045;60.214;24.724;2023-02-19T12:43:51;18.63;;;9.63;;
23728;SDS011;12045;60.214;24.724;2023-02-19T12:46:23;18.90;;;10.23;;
23728;SDS011;12045;60.214;24.724;2023-02-19T12:52:15;19.40;;;10.07;;
23728;SDS011;12045;60.214;24.724;2023-02-19T12:54:51;19.93;;;10.03;;
23728;SDS011;12045;60.214;24.724;2023-02-19T12:57:22;20.00;;;9.77;;
23728;SDS011;12045;60.214;24.724;2023-02-19T12:59:58;19.00;;;10.03;;
23728;SDS011;12045;60.214;24.724;2023-02-19T13:02:50;18.80;;;10.07;;
23728;SDS011;12045;60.214;24.724;2023-02-19T13:08:59;15.33;;;7.83;;
23728;SDS011;12045;60.214;24.724;2023-02-19T13:11:36;19.17;;;9.97;;
23728;SDS011;12045;60.214;24.724;2023-02-19T13:14:15;15.60;;;8.33;;
23728;SDS011;12045;60.214;24.724;2023-02-19T13:16:51;18.27;;;9.90;;
23728;SDS011;12045;60.214;24.724;2023-02-19T13:19:35;18.70;;;9.97;;
23728;SDS011;12045;60.214;24.724;2023-02-19T13:22:18;18.97;;;10.07;;
23728;SDS011;12045;60.214;24.724;2023-02-19T13:25:12;17.27;;;9.10;;
23728;SDS011;12045;60.214;24.724;2023-02-19T13:27:47;19.33;;;9.80;;
23728;SDS011;12045;60.214;24.724;2023-02-19T13:30:39;19.00;;;8.67;;
23728;SDS011;12045;60.214;24.724;2023-02-19T13:36:09;18.90;;;9.57;;
23728;SDS011;12045;60.214;24.724;2023-02-19T13:38:42;18.70;;;10.13;;
23728;SDS011;12045;60.214;24.724;2023-02-19T13:41:28;18.07;;;9.13;;
23728;SDS011;12045;60.214;24.724;2023-02-19T13:43:59;17.97;;;8.77;;
23728;SDS011;12045;60.214;24.724;2023-02-19T13:46:32;19.90;;;9.23;;
23728;SDS011;12045;60.214;24.724;2023-02-19T13:51:54;16.37;;;9.03;;
23728;SDS011;12045;60.214;24.724;2023-02-19T13:59:50;14.60;;;8.17;;
23728;SDS011;12045;60.214;24.724;2023-02-19T14:09:53;20.40;;;10.43;;
23728;SDS011;12045;60.214;24.724;2023-02-19T14:12:21;20.93;;;10.63;;
23728;SDS011;12045;60.214;24.724;2023-02-19T14:21:52;14.03;;;7.67;;
23728;SDS011;12045;60.214;24.724;2023-02-19T14:24:04;17.87;;;9.30;;
23728;SDS011;12045;60.214;24.724;2023-02-19T14:26:37;18.87;;;9.83;;
23728;SDS011;12045;60.214;24.724;2023-02-19T14:29:06;18.67;;;10.50;;
23728;SDS011;12045;60.214;24.724;2023-02-19T14:31:36;20.20;;;10.57;;
23728;SDS011;12045;60.214;24.724;2023-02-19T14:34:05;17.80;;;9.57;;
23728;SDS011;12045;60.214;24.724;2023-02-19T14:39:23;20.43;;;10.93;;
23728;SDS011;12045;60.214;24.724;2023-02-19T14:41:56;20.53;;;11.03;;
23728;SDS011;12045;60.214;24.724;2023-02-19T14:44:28;20.53;;;9.97;;
23728;SDS011;12045;60.214;24.724;2023-02-19T14:51:56;19.13;;;10.80;;
23728;SDS011;12045;60.214;24.724;2023-02-19T14:57:03;19.63;;;10.07;;
23728;SDS011;12045;60.214;24.724;2023-02-19T14:59:36;19.43;;;10.00;;
23728;SDS011;12045;60.214;24.724;2023-02-19T15:02:15;20.43;;;11.17;;
23728;SDS011;12045;60.214;24.724;2023-02-19T15:04:46;17.70;;;9.17;;
23728;SDS011;12045;60.214;24.724;2023-02-19T15:07:16;19.10;;;9.90;;
23728;SDS011;12045;60.214;24.724;2023-02-19T15:09:47;21.90;;;10.90;;
23728;SDS011;12045;60.214;24.724;2023-02-19T15:12:19;20.17;;;10.07;;
23728;SDS011;12045;60.214;24.724;2023-02-19T15:14:48;18.90;;;9.57;;
23728;SDS011;12045;60.214;24.724;2023-02-19T15:17:26;19.73;;;10.27;;
23728;SDS011;12045;60.214;24.724;2023-02-19T15:19:57;19.90;;;9.87;;
23728;SDS011;12045;60.214;24.724;2023-02-19T15:22:29;19.60;;;10.20;;
23728;SDS011;12045;60.214;24.724;2023-02-19T15:25:00;22.77;;;10.70;;
23728;SDS011;12045;60.214;24.724;2023-02-19T15:27:28;21.73;;;10.93;;
23728;SDS011;12045;60.214;24.724;2023-02-19T15:29:56;18.30;;;9.87;;
23728;SDS011;12045;60.214;24.724;2023-02-19T15:32:24;17.43;;;9.93;;
23728;SDS011;12045;60.214;24.724;2023-02-19T15:34:54;20.97;;;11.20;;
23728;SDS011;12045;60.214;24.724;2023-02-19T15:37:29;20.00;;;10.60;;
23728;SDS011;12045;60.214;24.724;2023-02-19T15:40:00;22.47;;;11.77;;
23728;SDS011;12045;60.214;24.724;2023-02-19T15:42:33;19.77;;;10.13;;
23728;SDS011;12045;60.214;24.724;2023-02-19T15:45:20;20.33;;;9.80;;
23728;SDS011;12045;60.214;24.724;2023-02-19T15:47:56;17.83;;;8.97;;
23728;SDS011;12045;60.214;24.724;2023-02-19T15:50:29;19.40;;;10.43;;
23728;SDS011;12045;60.214;24.724;2023-02-19T15:53:01;20.93;;;9.90;;
23728;SDS011;12045;60.214;24.724;2023-02-19T15:55:47;21.03;;;10.50;;
23728;SDS011;12045;60.214;24.724;2023-02-19T16:01:10;20.37;;;10.20;;
23728;SDS011;12045;60.214;24.724;2023-02-19T16:03:46;21.60;;;9.83;;
23728;SDS011;12045;60.214;24.724;2023-02-19T16:06:14;21.93;;;10.60;;
23728;SDS011;12045;60.214;24.724;2023-02-19T16:09:05;21.97;;;10.53;;
23728;SDS011;12045;60.214;24.724;2023-02-19T16:11:38;20.73;;;10.10;;
23728;SDS011;12045;60.214;24.724;2023-02-19T16:14:38;20.80;;;10.63;;
23728;SDS011;12045;60.214;24.724;2023-02-19T16:19:45;22.20;;;10.17;;
23728;SDS011;12045;60.214;24.724;2023-02-19T16:22:20;23.90;;;11.80;;
23728;SDS011;12045;60.214;24.724;2023-02-19T16:24:51;20.77;;;11.10;;
23728;SDS011;12045;60.214;24.724;2023-02-19T16:27:42;22.50;;;10.90;;
23728;SDS011;12045;60.214;24.724;2023-02-19T16:32:43;24.03;;;11.30;;
23728;SDS011;12045;60.214;24.724;2023-02-19T16:35:33;22.13;;;11.40;;
23728;SDS011;12045;60.214;24.724;2023-02-19T16:38:17;27.20;;;11.27;;
23728;SDS011;12045;60.214;24.724;2023-02-19T16:43:24;23.70;;;11.37;;
23728;SDS011;12045;60.214;24.724;2023-02-19T16:46:17;19.10;;;10.20;;
23728;SDS011;12045;60.214;24.724;2023-02-19T16:48:45;22.00;;;10.80;;
23728;SDS011;12045;60.214;24.724;2023-02-19T16:51:15;24.73;;;11.33;;
23728;SDS011;12045;60.214;24.724;2023-02-19T16:53:49;23.90;;;11.03;;
23728;SDS011;12045;60.214;24.724;2023-02-19T16:56:17;20.00;;;9.70;;
23728;SDS011;12045;60.214;24.724;2023-02-19T16:58:48;18.53;;;9.60;;
23728;SDS011;12045;60.214;24.724;2023-02-19T17:01:16;22.90;;;10.77;;
23728;SDS011;12045;60.214;24.724;2023-02-19T17:03:44;19.67;;;10.50;;
23728;SDS011;12045;60.214;24.724;2023-02-19T17:06:13;24.57;;;11.57;;
23728;SDS011;12045;60.214;24.724;2023-02-19T17:08:42;22.77;;;10.60;;
23728;SDS011;12045;60.214;24.724;2023-02-19T17:11:13;20.23;;;10.30;;
23728;SDS011;12045;60.214;24.724;2023-02-19T17:13:42;20.80;;;10.90;;
23728;SDS011;12045;60.214;24.724;2023-02-19T17:16:19;19.70;;;9.60;;